createdAt,value
2022-11-01T00:02:06.261Z,8.80
2022-11-01T00:04:33.275Z,8.80
2022-11-01T00:07:00.144Z,8.80
2022-11-01T00:09:26.935Z,8.80
2022-11-01T00:11:54.071Z,8.70
2022-11-01T00:14:21.204Z,8.70
2022-11-01T00:16:48.546Z,8.70
2022-11-01T00:19:15.740Z,8.60
2022-11-01T00:21:42.565Z,8.60
2022-11-01T00:24:09.460Z,8.60
2022-11-01T00:26:36.387Z,8.60
2022-11-01T00:29:03.546Z,8.60
2022-11-01T00:31:30.512Z,8.60
2022-11-01T00:33:57.489Z,8.50
2022-11-01T00:36:24.338Z,8.60
2022-11-01T00:38:54.217Z,8.60
2022-11-01T00:41:21.813Z,8.60
2022-11-01T00:43:49.456Z,8.60
2022-11-01T00:46:17.032Z,8.50
2022-11-01T00:48:43.884Z,8.60
2022-11-01T00:51:10.976Z,8.60
2022-11-01T00:53:38.023Z,8.50
2022-11-01T00:56:06.461Z,8.50
2022-11-01T00:58:33.761Z,8.50
2022-11-01T01:01:00.741Z,8.50
2022-11-01T01:03:27.626Z,8.50
2022-11-01T01:05:54.911Z,8.40
2022-11-01T01:08:23.428Z,8.40
2022-11-01T01:10:50.790Z,8.40
2022-11-01T01:13:18.033Z,8.40
2022-11-01T01:15:44.876Z,8.30
2022-11-01T01:18:12.285Z,8.30
2022-11-01T01:20:39.164Z,8.30
2022-11-01T01:23:06.014Z,8.30
2022-11-01T01:25:33.338Z,8.30
2022-11-01T01:28:00.529Z,8.30
2022-11-01T01:30:27.612Z,8.20
2022-11-01T01:32:54.466Z,8.20
2022-11-01T01:35:21.250Z,8.20
2022-11-01T01:37:48.163Z,8.10
2022-11-01T01:40:14.976Z,8.10
2022-11-01T01:42:43.025Z,8.10
2022-11-01T01:45:31.790Z,8.10
2022-11-01T01:48:16.879Z,8.10
2022-11-01T01:50:59.382Z,8.10
2022-11-01T01:53:34.782Z,8.00
2022-11-01T01:56:06.560Z,8.10
2022-11-01T01:58:44.760Z,8.10
2022-11-01T02:01:12.150Z,8.00
2022-11-01T02:03:41.126Z,8.10
2022-11-01T02:06:15.904Z,8.00
2022-11-01T02:08:46.481Z,8.00
2022-11-01T02:11:14.939Z,8.00
2022-11-01T02:13:41.798Z,8.00
2022-11-01T02:16:33.963Z,7.90
2022-11-01T02:19:10.179Z,7.90
2022-11-01T02:22:04.089Z,7.80
2022-11-01T02:24:46.214Z,7.80
2022-11-01T02:27:39.984Z,7.80
2022-11-01T02:30:19.199Z,7.70
2022-11-01T02:32:55.069Z,7.70
2022-11-01T02:35:30.490Z,7.70
2022-11-01T02:38:21.494Z,7.70
2022-11-01T02:40:51.298Z,7.70
2022-11-01T02:43:24.075Z,7.70
2022-11-01T02:45:51.465Z,7.70
2022-11-01T02:48:21.687Z,7.70
2022-11-01T02:50:59.796Z,7.70
2022-11-01T02:53:27.368Z,7.60
2022-11-01T02:55:54.609Z,7.60
2022-11-01T02:58:27.753Z,7.60
2022-11-01T03:00:57.009Z,7.60
2022-11-01T03:03:33.764Z,7.60
2022-11-01T03:06:00.595Z,7.50
2022-11-01T03:08:38.203Z,7.50
2022-11-01T03:11:36.942Z,7.50
2022-11-01T03:14:22.461Z,7.50
2022-11-01T03:17:10.481Z,7.50
2022-11-01T03:19:40.290Z,7.40
2022-11-01T03:22:24.265Z,7.40
2022-11-01T03:25:05.958Z,7.40
2022-11-01T03:27:39.606Z,7.40
2022-11-01T03:30:10.308Z,7.40
2022-11-01T03:32:43.743Z,7.40
2022-11-01T03:35:15.823Z,7.40
2022-11-01T03:37:44.324Z,7.40
2022-11-01T03:40:12.936Z,7.40
2022-11-01T03:42:41.165Z,7.40
2022-11-01T03:45:12.278Z,7.40
2022-11-01T03:47:39.300Z,7.40
2022-11-01T03:50:20.177Z,7.40
2022-11-01T03:52:47.595Z,7.30
2022-11-01T03:55:19.039Z,7.30
2022-11-01T03:57:57.484Z,7.30
2022-11-01T04:00:30.707Z,7.20
2022-11-01T04:02:59.007Z,7.20
2022-11-01T04:05:29.150Z,7.20
2022-11-01T04:07:56.531Z,7.10
2022-11-01T04:10:25.355Z,7.10
2022-11-01T04:12:53.165Z,7.10
2022-11-01T04:15:39.940Z,7.10
2022-11-01T04:18:34.431Z,7.10
2022-11-01T04:21:04.701Z,7.10
2022-11-01T04:23:31.642Z,7.10
2022-11-01T04:25:58.436Z,7.10
2022-11-01T04:28:25.491Z,7.10
2022-11-01T04:30:52.349Z,7.10
2022-11-01T04:33:19.273Z,7.10
2022-11-01T04:35:46.624Z,7.20
2022-11-01T04:38:14.084Z,7.20
2022-11-01T04:40:42.343Z,7.30
2022-11-01T04:43:10.346Z,7.30
2022-11-01T04:45:37.330Z,7.40
2022-11-01T04:48:16.975Z,7.50
2022-11-01T04:50:45.545Z,7.50
2022-11-01T04:53:12.462Z,7.50
2022-11-01T04:55:39.468Z,7.60
2022-11-01T04:58:10.948Z,7.60
2022-11-01T05:00:38.737Z,7.60
2022-11-01T05:03:07.695Z,7.60
2022-11-01T05:05:35.515Z,7.70
2022-11-01T05:08:13.345Z,7.70
2022-11-01T05:10:43.091Z,7.70
2022-11-01T05:13:11.961Z,7.70
2022-11-01T05:15:40.143Z,7.80
2022-11-01T05:18:14.893Z,7.80
2022-11-01T05:20:41.692Z,7.90
2022-11-01T05:23:09.513Z,7.90
2022-11-01T05:25:38.201Z,7.90
2022-11-01T05:28:08.741Z,8.00
2022-11-01T05:30:36.825Z,8.00
2022-11-01T05:33:05.169Z,8.00
2022-11-01T05:35:33.050Z,8.00
2022-11-01T05:38:01.239Z,8.00
2022-11-01T05:40:28.432Z,8.00
2022-11-01T05:42:55.263Z,8.00
2022-11-01T05:45:22.123Z,7.90
2022-11-01T05:47:48.976Z,7.90
2022-11-01T05:50:17.026Z,7.90
2022-11-01T05:52:44.192Z,7.90
2022-11-01T05:55:11.672Z,7.90
2022-11-01T05:57:38.657Z,8.00
2022-11-01T06:00:06.449Z,7.90
2022-11-01T06:02:33.538Z,8.00
2022-11-01T06:05:03.005Z,8.00
2022-11-01T06:07:30.274Z,8.00
2022-11-01T06:09:57.078Z,8.00
2022-11-01T06:12:25.618Z,8.00
2022-11-01T06:14:52.600Z,8.00
2022-11-01T06:17:19.775Z,8.10
2022-11-01T06:19:46.622Z,8.10
2022-11-01T06:22:13.837Z,8.20
2022-11-01T06:24:40.713Z,8.30
2022-11-01T06:27:12.437Z,8.40
2022-11-01T06:29:39.595Z,8.40
2022-11-01T06:32:06.846Z,8.50
2022-11-01T06:34:33.994Z,8.50
2022-11-01T06:37:01.304Z,8.50
2022-11-01T06:39:28.263Z,8.60
2022-11-01T06:41:55.105Z,8.60
2022-11-01T06:44:22.646Z,8.60
2022-11-01T06:46:49.536Z,8.60
2022-11-01T06:49:19.025Z,8.60
2022-11-01T06:51:46.489Z,8.70
2022-11-01T06:54:13.695Z,8.70
2022-11-01T06:56:40.721Z,8.80
2022-11-01T06:59:08.398Z,8.80
2022-11-01T07:01:36.501Z,8.90
2022-11-01T07:04:03.464Z,9.00
2022-11-01T07:06:31.126Z,9.10
2022-11-01T07:08:59.490Z,9.30
2022-11-01T07:11:31.151Z,9.40
2022-11-01T07:13:59.240Z,9.50
2022-11-01T07:16:26.495Z,9.60
2022-11-01T07:18:53.611Z,9.80
2022-11-01T07:21:20.486Z,9.90
2022-11-01T07:23:47.449Z,10.00
2022-11-01T07:26:14.713Z,10.20
2022-11-01T07:28:41.665Z,10.30
2022-11-01T07:31:08.766Z,10.40
2022-11-01T07:33:35.622Z,10.60
2022-11-01T07:36:03.228Z,10.70
2022-11-01T07:38:30.626Z,10.90
2022-11-01T07:40:57.506Z,11.00
2022-11-01T07:43:24.348Z,11.10
2022-11-01T07:45:51.626Z,11.10
2022-11-01T07:48:19.544Z,11.20
2022-11-01T07:50:46.590Z,11.30
2022-11-01T07:53:18.496Z,11.40
2022-11-01T07:55:46.474Z,11.50
2022-11-01T07:58:15.081Z,11.60
2022-11-01T08:00:43.605Z,11.60
2022-11-01T08:03:13.989Z,11.60
2022-11-01T08:05:42.005Z,11.80
2022-11-01T08:08:09.418Z,11.70
2022-11-01T08:10:37.358Z,11.80
2022-11-01T08:13:05.308Z,11.80
2022-11-01T08:15:32.721Z,12.00
2022-11-01T08:18:00.207Z,12.10
2022-11-01T08:20:27.584Z,12.20
2022-11-01T08:22:55.085Z,12.40
2022-11-01T08:25:22.240Z,12.60
2022-11-01T08:27:49.073Z,12.70
2022-11-01T08:30:17.637Z,12.90
2022-11-01T08:32:45.244Z,13.10
2022-11-01T08:35:12.583Z,13.30
2022-11-01T08:37:51.516Z,13.40
2022-11-01T08:40:18.920Z,13.50
2022-11-01T08:42:45.785Z,13.60
2022-11-01T08:45:12.676Z,13.60
2022-11-01T08:47:40.404Z,13.70
2022-11-01T08:50:11.322Z,13.70
2022-11-01T08:52:38.836Z,13.70
2022-11-01T08:55:06.513Z,13.70
2022-11-01T08:57:33.416Z,13.70
2022-11-01T09:00:00.213Z,13.70
2022-11-01T09:02:27.396Z,13.60
2022-11-01T09:04:54.234Z,13.70
2022-11-01T09:07:21.085Z,13.70
2022-11-01T09:09:47.873Z,13.70
2022-11-01T09:12:15.067Z,13.70
2022-11-01T09:14:42.118Z,13.70
2022-11-01T09:17:09.094Z,13.60
2022-11-01T09:19:36.149Z,13.70
2022-11-01T09:22:03.095Z,13.70
2022-11-01T09:24:30.004Z,13.70
2022-11-01T09:26:56.863Z,13.80
2022-11-01T09:29:23.797Z,13.80
2022-11-01T09:31:52.836Z,13.90
2022-11-01T09:34:20.595Z,13.90
2022-11-01T09:36:47.840Z,13.90
2022-11-01T09:39:16.516Z,14.00
2022-11-01T09:41:47.787Z,14.10
2022-11-01T09:44:48.612Z,14.20
2022-11-01T09:47:22.716Z,14.30
2022-11-01T09:50:11.584Z,14.60
2022-11-01T09:52:41.156Z,14.70
2022-11-01T09:55:16.394Z,14.90
2022-11-01T09:57:55.459Z,15.10
2022-11-01T10:00:22.756Z,15.20
2022-11-01T10:03:04.809Z,15.30
2022-11-01T10:05:31.640Z,15.40
2022-11-01T10:08:24.192Z,15.30
2022-11-01T10:11:18.367Z,15.20
2022-11-01T10:14:10.818Z,15.20
2022-11-01T10:16:45.125Z,15.10
2022-11-01T10:19:21.890Z,15.10
2022-11-01T10:21:55.273Z,15.00
2022-11-01T10:24:40.883Z,15.10
2022-11-01T10:27:39.959Z,15.00
2022-11-01T10:30:13.376Z,15.10
2022-11-01T10:32:54.489Z,15.10
2022-11-01T10:35:25.262Z,15.20
2022-11-01T10:38:18.593Z,15.20
2022-11-01T10:40:55.131Z,15.30
2022-11-01T10:43:23.469Z,15.40
2022-11-01T10:45:54.098Z,15.50
2022-11-01T10:48:35.672Z,15.40
2022-11-01T10:51:06.367Z,15.50
2022-11-01T10:53:43.515Z,15.60
2022-11-01T10:56:18.596Z,15.60
2022-11-01T10:58:58.819Z,15.60
2022-11-01T11:01:28.560Z,15.70
2022-11-01T11:04:01.305Z,15.70
2022-11-01T11:06:28.386Z,15.70
2022-11-01T11:08:56.625Z,15.80
2022-11-01T11:11:43.576Z,15.80
2022-11-01T11:14:12.208Z,15.90
2022-11-01T11:16:46.653Z,16.00
2022-11-01T11:19:16.249Z,16.00
2022-11-01T11:21:44.956Z,16.10
2022-11-01T11:24:45.575Z,16.10
2022-11-01T11:27:26.655Z,16.10
2022-11-01T11:29:54.762Z,16.00
2022-11-01T11:32:28.695Z,16.00
2022-11-01T11:35:01.743Z,16.00
2022-11-01T11:37:31.920Z,16.00
2022-11-01T11:40:40.805Z,16.00
2022-11-01T11:43:30.677Z,16.00
2022-11-01T11:46:23.618Z,16.00
2022-11-01T11:48:51.586Z,16.00
2022-11-01T11:51:22.416Z,16.00
2022-11-01T11:54:21.809Z,15.90
2022-11-01T11:56:53.552Z,16.00
2022-11-01T11:59:27.748Z,16.00
2022-11-01T12:02:00.141Z,16.00
2022-11-01T12:04:33.683Z,16.10
2022-11-01T12:07:00.618Z,16.20
2022-11-01T12:09:47.986Z,16.30
2022-11-01T12:12:24.471Z,16.40
2022-11-01T12:14:51.667Z,16.40
2022-11-01T12:17:25.527Z,16.50
2022-11-01T12:20:15.496Z,16.50
2022-11-01T12:23:26.891Z,16.50
2022-11-01T12:25:55.368Z,16.50
2022-11-01T12:28:40.432Z,16.50
2022-11-01T12:31:17.421Z,16.50
2022-11-01T12:33:50.675Z,16.40
2022-11-01T12:36:26.412Z,16.50
2022-11-01T12:39:17.474Z,16.50
2022-11-01T12:41:52.868Z,16.40
2022-11-01T12:44:26.011Z,16.50
2022-11-01T12:46:57.657Z,16.50
2022-11-01T12:49:41.194Z,16.50
2022-11-01T12:52:43.184Z,16.50
2022-11-01T12:55:28.611Z,16.40
2022-11-01T12:57:55.863Z,16.40
2022-11-01T13:00:23.873Z,16.40
2022-11-01T13:03:29.509Z,16.40
2022-11-01T13:05:56.327Z,16.40
2022-11-01T13:08:38.551Z,16.40
2022-11-01T13:11:22.808Z,16.40
2022-11-01T13:14:14.825Z,16.40
2022-11-01T13:16:48.135Z,16.40
2022-11-01T13:19:23.374Z,16.40
2022-11-01T13:22:13.725Z,16.40
2022-11-01T13:24:50.645Z,16.40
2022-11-01T13:27:27.835Z,16.30
2022-11-01T13:30:05.415Z,16.30
2022-11-01T13:32:50.969Z,16.30
2022-11-01T13:35:23.814Z,16.40
2022-11-01T13:38:18.000Z,16.30
2022-11-01T13:40:57.421Z,16.30
2022-11-01T13:43:39.036Z,16.20
2022-11-01T13:46:14.795Z,16.20
2022-11-01T13:49:10.604Z,16.20
2022-11-01T13:51:49.391Z,16.20
2022-11-01T13:54:25.961Z,16.20
2022-11-01T13:57:12.777Z,16.20
2022-11-01T13:59:41.355Z,16.20
2022-11-01T14:02:26.303Z,16.10
2022-11-01T14:04:58.392Z,16.10
2022-11-01T14:07:46.442Z,16.00
2022-11-01T14:10:20.042Z,15.90
2022-11-01T14:13:10.848Z,15.80
2022-11-01T14:16:00.450Z,15.80
2022-11-01T14:18:27.712Z,15.80
2022-11-01T14:20:55.991Z,15.80
2022-11-01T14:23:28.889Z,15.80
2022-11-01T14:26:20.574Z,15.80
2022-11-01T14:28:50.419Z,15.70
2022-11-01T14:31:23.984Z,15.70
2022-11-01T14:33:54.896Z,15.70
2022-11-01T14:36:29.084Z,15.70
2022-11-01T14:38:59.174Z,15.60
2022-11-01T14:41:30.400Z,15.60
2022-11-01T14:44:03.079Z,15.50
2022-11-01T14:46:34.089Z,15.50
2022-11-01T14:49:13.901Z,15.50
2022-11-01T14:52:00.140Z,15.40
2022-11-01T14:55:05.529Z,15.40
2022-11-01T14:57:34.570Z,15.30
2022-11-01T15:00:22.904Z,15.30
2022-11-01T15:02:51.022Z,15.20
2022-11-01T15:05:17.972Z,15.10
2022-11-01T15:07:51.047Z,15.10
2022-11-01T15:10:18.050Z,15.10
2022-11-01T15:12:58.788Z,15.00
2022-11-01T15:15:36.433Z,15.00
2022-11-01T15:18:06.853Z,14.90
2022-11-01T15:20:40.656Z,14.90
2022-11-01T15:23:16.353Z,14.90
2022-11-01T15:25:50.379Z,14.80
2022-11-01T15:28:25.151Z,14.80
2022-11-01T15:31:01.194Z,14.80
2022-11-01T15:33:31.609Z,14.80
2022-11-01T15:36:00.936Z,14.70
2022-11-01T15:38:29.873Z,14.70
2022-11-01T15:40:56.845Z,14.60
2022-11-01T15:43:27.343Z,14.60
2022-11-01T15:45:58.390Z,14.50
2022-11-01T15:48:29.422Z,14.40
2022-11-01T15:51:01.002Z,14.40
2022-11-01T15:53:32.422Z,14.30
2022-11-01T15:56:15.934Z,14.30
2022-11-01T15:58:53.749Z,14.20
2022-11-01T16:01:24.822Z,14.20
2022-11-01T16:04:01.546Z,14.10
2022-11-01T16:06:40.880Z,14.10
2022-11-01T16:09:34.436Z,14.10
2022-11-01T16:12:04.206Z,14.00
2022-11-01T16:14:37.702Z,14.00
2022-11-01T16:17:23.879Z,13.90
2022-11-01T16:19:52.762Z,13.90
2022-11-01T16:22:26.698Z,13.90
2022-11-01T16:25:13.617Z,13.80
2022-11-01T16:28:18.871Z,13.70
2022-11-01T16:30:46.376Z,13.70
2022-11-01T16:33:33.810Z,13.70
2022-11-01T16:36:20.721Z,13.60
2022-11-01T16:38:54.693Z,13.60
2022-11-01T16:41:24.202Z,13.60
2022-11-01T16:43:56.816Z,13.50
2022-11-01T16:46:25.485Z,13.50
2022-11-01T16:49:01.070Z,13.50
2022-11-01T16:51:30.295Z,13.40
2022-11-01T16:53:59.029Z,13.30
2022-11-01T16:56:38.257Z,13.30
2022-11-01T16:59:28.911Z,13.30
2022-11-01T17:01:58.628Z,13.30
2022-11-01T17:04:29.604Z,13.20
2022-11-01T17:06:58.750Z,13.20
2022-11-01T17:09:29.439Z,13.20
2022-11-01T17:11:56.349Z,13.10
2022-11-01T17:14:23.217Z,13.10
2022-11-01T17:16:52.137Z,13.10
2022-11-01T17:19:24.559Z,13.20
2022-11-01T17:21:52.296Z,13.10
2022-11-01T17:24:21.301Z,13.10
2022-11-01T17:26:49.416Z,13.10
2022-11-01T17:29:16.237Z,13.00
2022-11-01T17:31:43.169Z,13.10
2022-11-01T17:34:09.973Z,13.00
2022-11-01T17:36:38.326Z,13.00
2022-11-01T17:39:05.372Z,13.00
2022-11-01T17:41:32.193Z,13.00
2022-11-01T17:43:58.984Z,13.00
2022-11-01T17:46:26.496Z,13.00
2022-11-01T17:48:53.431Z,12.90
2022-11-01T17:51:20.707Z,12.90
2022-11-01T17:53:52.169Z,12.90
2022-11-01T17:56:19.023Z,12.80
2022-11-01T17:58:51.969Z,12.70
2022-11-01T18:01:20.691Z,12.60
2022-11-01T18:03:48.756Z,12.60
2022-11-01T18:06:15.813Z,12.50
2022-11-01T18:08:46.916Z,12.50
2022-11-01T18:11:22.692Z,12.30
2022-11-01T18:14:12.375Z,12.20
2022-11-01T18:17:22.238Z,12.20
2022-11-01T18:20:05.160Z,12.10
2022-11-01T18:22:49.486Z,12.10
2022-11-01T18:25:36.487Z,12.00
2022-11-01T18:28:14.891Z,12.00
2022-11-01T18:31:04.517Z,11.90
2022-11-01T18:33:50.795Z,11.90
2022-11-01T18:36:27.358Z,11.90
2022-11-01T18:39:31.977Z,11.80
2022-11-01T18:42:00.876Z,11.80
2022-11-01T18:44:28.090Z,11.80
2022-11-01T18:46:58.046Z,11.70
2022-11-01T18:49:27.102Z,11.60
2022-11-01T18:51:55.343Z,11.60
2022-11-01T18:54:30.325Z,11.50
2022-11-01T18:56:58.791Z,11.40
2022-11-01T18:59:32.067Z,11.40
2022-11-01T19:02:19.402Z,11.30
2022-11-01T19:04:48.399Z,11.30
2022-11-01T19:07:22.627Z,11.30
2022-11-01T19:10:00.300Z,11.20
2022-11-01T19:12:33.248Z,11.20
2022-11-01T19:15:17.794Z,11.20
2022-11-01T19:17:45.625Z,11.10
2022-11-01T19:20:18.503Z,11.10
2022-11-01T19:22:45.302Z,11.00
2022-11-01T19:25:24.273Z,11.00
2022-11-01T19:27:55.156Z,10.90
2022-11-01T19:30:28.591Z,10.80
2022-11-01T19:33:00.311Z,10.70
2022-11-01T19:35:27.390Z,10.60
2022-11-01T19:37:56.812Z,10.60
2022-11-01T19:40:28.253Z,10.40
2022-11-01T19:42:57.509Z,10.40
2022-11-01T19:45:29.890Z,10.30
2022-11-01T19:47:58.164Z,10.30
2022-11-01T19:50:39.880Z,10.20
2022-11-01T19:53:22.466Z,10.20
2022-11-01T19:55:52.631Z,10.20
2022-11-01T19:58:25.025Z,10.20
2022-11-01T20:01:16.911Z,10.20
2022-11-01T20:03:48.256Z,10.20
2022-11-01T20:06:18.108Z,10.20
2022-11-01T20:08:47.798Z,10.10
2022-11-01T20:11:14.608Z,10.10
2022-11-01T20:13:41.493Z,10.10
2022-11-01T20:16:08.640Z,10.10
2022-11-01T20:18:35.473Z,10.00
2022-11-01T20:21:06.009Z,10.00
2022-11-01T20:23:36.478Z,10.00
2022-11-01T20:26:04.506Z,10.00
2022-11-01T20:28:32.033Z,9.90
2022-11-01T20:30:59.138Z,9.80
2022-11-01T20:33:26.405Z,9.80
2022-11-01T20:35:53.733Z,9.70
2022-11-01T20:40:47.416Z,9.60
2022-11-01T20:43:14.252Z,9.60
2022-11-01T20:45:42.239Z,9.50
2022-11-01T20:48:09.113Z,9.50
2022-11-01T20:50:36.131Z,9.50
2022-11-01T20:53:05.069Z,9.50
2022-11-01T20:55:32.291Z,9.50
2022-11-01T20:57:59.289Z,9.50
2022-11-01T21:00:26.999Z,9.50
2022-11-01T21:02:57.196Z,9.50
2022-11-01T21:05:28.742Z,9.40
2022-11-01T21:08:06.121Z,9.50
2022-11-01T21:10:38.689Z,9.40
2022-11-01T21:13:27.144Z,9.50
2022-11-01T21:15:56.228Z,9.50
2022-11-01T21:18:26.385Z,9.50
2022-11-01T21:20:53.204Z,9.50
2022-11-01T21:23:29.201Z,9.50
2022-11-01T21:26:00.201Z,9.50
2022-11-01T21:28:53.488Z,9.40
2022-11-01T21:31:29.344Z,9.50
2022-11-01T21:34:01.886Z,9.50
2022-11-01T21:36:35.030Z,9.50
2022-11-01T21:39:26.967Z,9.50
2022-11-01T21:42:03.095Z,9.50
2022-11-01T21:44:39.745Z,9.60
2022-11-01T21:47:10.278Z,9.50
2022-11-01T21:49:37.215Z,9.50
2022-11-01T21:52:06.636Z,9.40
2022-11-01T21:54:35.878Z,9.40
2022-11-01T21:57:04.683Z,9.30
2022-11-01T21:59:32.196Z,9.30
2022-11-01T22:02:01.457Z,9.20
2022-11-01T22:04:32.712Z,9.20
2022-11-01T22:07:02.036Z,9.10
2022-11-01T22:09:29.294Z,9.10
2022-11-01T22:11:56.647Z,9.10
2022-11-01T22:14:23.980Z,9.10
2022-11-01T22:16:50.806Z,9.00
2022-11-01T22:19:17.697Z,9.00
2022-11-01T22:24:12.339Z,9.00
2022-11-01T22:26:39.195Z,9.00
2022-11-01T22:29:06.068Z,8.90
2022-11-01T22:31:32.921Z,8.90
2022-11-01T22:34:01.464Z,8.90
2022-11-01T22:36:30.526Z,8.90
2022-11-01T22:39:02.996Z,8.80
2022-11-01T22:41:33.918Z,8.80
2022-11-01T22:44:06.504Z,8.80
2022-11-01T22:46:56.900Z,8.80
2022-11-01T22:49:41.741Z,8.80
2022-11-01T22:52:26.944Z,8.80
2022-11-01T22:55:05.227Z,8.80
2022-11-01T22:57:35.581Z,8.80
2022-11-01T23:00:27.544Z,8.80
2022-11-01T23:03:36.985Z,8.70
2022-11-01T23:06:30.037Z,8.70
2022-11-01T23:09:01.108Z,8.70
2022-11-01T23:11:48.667Z,8.60
2022-11-01T23:14:36.448Z,8.60
2022-11-01T23:17:27.657Z,8.50
2022-11-01T23:20:02.352Z,8.50
2022-11-01T23:22:35.265Z,8.60
2022-11-01T23:25:03.569Z,8.50
2022-11-01T23:27:30.646Z,8.50
2022-11-01T23:30:00.811Z,8.40
2022-11-01T23:32:28.592Z,8.40
2022-11-01T23:35:06.583Z,8.40
2022-11-01T23:37:33.376Z,8.40
2022-11-01T23:40:00.182Z,8.30
2022-11-01T23:42:27.862Z,8.30
2022-11-01T23:44:56.920Z,8.30
2022-11-01T23:47:35.391Z,8.30
2022-11-01T23:50:05.410Z,8.20
2022-11-01T23:52:52.982Z,8.20
2022-11-01T23:55:29.625Z,8.20
2022-11-01T23:58:05.134Z,8.10
